Bearskin Lake, Canada
Current Conditions -  °F | °C
As of 6:04 AM on Thursday 29 Jan 2015 (Local Time) from CYTL Reporting Station
Light Snow Light Snow  
Wind Chill: -25°   Ceiling: 3600
Heat Index: -11°   Visibility: 6mi
Dew Point: -15°   Wind: 6mph
Humidity: 84%   Direction: 330°NNW
Pressure: 30.18"   Gusts: NA
Location:  53.93°N, 90.98°W
Report Text: CYTL 291204Z AUTO 33005KT 6SM -SN BKN036 M24/M26 A3018 RMK SLP251
Loading
Personal Weather Stations






























Interactive Weather Map New forecast layout! Learn more

10-Day Weather Forecast

Advertisements
Track Severe Weather on mobile